sensor_id;sensor_type;location;lat;lon;timestamp;P1;durP1;ratioP1;P2;durP2;ratioP2
36443;SDS011;24692;45.642;13.806;2024-01-25T00:00:57;33.93;;;22.43;;
36443;SDS011;24692;45.642;13.806;2024-01-25T00:03:23;36.70;;;22.83;;
36443;SDS011;24692;45.642;13.806;2024-01-25T00:05:48;29.43;;;20.83;;
36443;SDS011;24692;45.642;13.806;2024-01-25T00:08:14;36.80;;;22.50;;
36443;SDS011;24692;45.642;13.806;2024-01-25T00:10:40;33.30;;;22.17;;
36443;SDS011;24692;45.642;13.806;2024-01-25T00:13:06;32.70;;;21.93;;
36443;SDS011;24692;45.642;13.806;2024-01-25T00:15:32;32.90;;;20.90;;
36443;SDS011;24692;45.642;13.806;2024-01-25T00:17:57;31.30;;;21.23;;
36443;SDS011;24692;45.642;13.806;2024-01-25T00:20:23;29.80;;;21.17;;
36443;SDS011;24692;45.642;13.806;2024-01-25T00:22:49;30.10;;;19.87;;
36443;SDS011;24692;45.642;13.806;2024-01-25T00:25:14;28.87;;;20.70;;
36443;SDS011;24692;45.642;13.806;2024-01-25T00:27:40;31.80;;;20.40;;
36443;SDS011;24692;45.642;13.806;2024-01-25T00:30:06;29.37;;;20.67;;
36443;SDS011;24692;45.642;13.806;2024-01-25T00:32:32;29.10;;;20.20;;
36443;SDS011;24692;45.642;13.806;2024-01-25T00:34:58;28.73;;;18.80;;
36443;SDS011;24692;45.642;13.806;2024-01-25T00:37:23;28.00;;;17.30;;
36443;SDS011;24692;45.642;13.806;2024-01-25T00:39:49;29.23;;;17.80;;
36443;SDS011;24692;45.642;13.806;2024-01-25T00:42:15;22.57;;;16.57;;
36443;SDS011;24692;45.642;13.806;2024-01-25T00:44:41;24.27;;;15.60;;
36443;SDS011;24692;45.642;13.806;2024-01-25T00:47:07;21.97;;;15.97;;
36443;SDS011;24692;45.642;13.806;2024-01-25T00:49:34;25.37;;;16.57;;
36443;SDS011;24692;45.642;13.806;2024-01-25T00:52:00;24.77;;;17.00;;
36443;SDS011;24692;45.642;13.806;2024-01-25T00:54:28;23.77;;;16.37;;
36443;SDS011;24692;45.642;13.806;2024-01-25T00:56:55;23.60;;;15.47;;
36443;SDS011;24692;45.642;13.806;2024-01-25T00:59:21;24.20;;;16.80;;
36443;SDS011;24692;45.642;13.806;2024-01-25T01:01:47;21.73;;;16.07;;
36443;SDS011;24692;45.642;13.806;2024-01-25T01:04:14;22.87;;;15.33;;
36443;SDS011;24692;45.642;13.806;2024-01-25T01:06:40;22.40;;;15.50;;
36443;SDS011;24692;45.642;13.806;2024-01-25T01:09:06;22.10;;;15.53;;
36443;SDS011;24692;45.642;13.806;2024-01-25T01:11:33;21.10;;;14.07;;
36443;SDS011;24692;45.642;13.806;2024-01-25T01:13:59;21.13;;;14.30;;
36443;SDS011;24692;45.642;13.806;2024-01-25T01:16:24;18.27;;;13.67;;
36443;SDS011;24692;45.642;13.806;2024-01-25T01:18:50;19.33;;;13.07;;
36443;SDS011;24692;45.642;13.806;2024-01-25T01:21:16;20.50;;;13.23;;
36443;SDS011;24692;45.642;13.806;2024-01-25T01:23:42;19.67;;;13.70;;
36443;SDS011;24692;45.642;13.806;2024-01-25T01:26:07;23.37;;;14.20;;
36443;SDS011;24692;45.642;13.806;2024-01-25T01:28:33;21.47;;;14.13;;
36443;SDS011;24692;45.642;13.806;2024-01-25T01:30:59;17.97;;;12.50;;
36443;SDS011;24692;45.642;13.806;2024-01-25T01:33:24;22.50;;;13.97;;
36443;SDS011;24692;45.642;13.806;2024-01-25T01:35:50;20.47;;;14.10;;
36443;SDS011;24692;45.642;13.806;2024-01-25T01:38:16;21.40;;;14.03;;
36443;SDS011;24692;45.642;13.806;2024-01-25T01:40:41;20.30;;;14.13;;
36443;SDS011;24692;45.642;13.806;2024-01-25T01:43:17;21.30;;;13.30;;
36443;SDS011;24692;45.642;13.806;2024-01-25T01:45:43;22.97;;;15.07;;
36443;SDS011;24692;45.642;13.806;2024-01-25T01:48:09;22.80;;;15.87;;
36443;SDS011;24692;45.642;13.806;2024-01-25T01:50:34;26.97;;;14.87;;
36443;SDS011;24692;45.642;13.806;2024-01-25T01:53:00;19.93;;;14.10;;
36443;SDS011;24692;45.642;13.806;2024-01-25T01:55:26;24.70;;;15.80;;
36443;SDS011;24692;45.642;13.806;2024-01-25T01:57:52;23.33;;;14.83;;
36443;SDS011;24692;45.642;13.806;2024-01-25T02:00:18;22.10;;;14.73;;
36443;SDS011;24692;45.642;13.806;2024-01-25T02:02:46;21.90;;;15.20;;
36443;SDS011;24692;45.642;13.806;2024-01-25T02:05:12;23.17;;;16.23;;
36443;SDS011;24692;45.642;13.806;2024-01-25T02:07:38;17.73;;;13.40;;
36443;SDS011;24692;45.642;13.806;2024-01-25T02:10:05;19.00;;;12.53;;
36443;SDS011;24692;45.642;13.806;2024-01-25T02:12:32;19.43;;;13.33;;
36443;SDS011;24692;45.642;13.806;2024-01-25T02:14:58;18.87;;;13.20;;
36443;SDS011;24692;45.642;13.806;2024-01-25T02:17:23;21.40;;;14.13;;
36443;SDS011;24692;45.642;13.806;2024-01-25T02:19:49;18.97;;;13.53;;
36443;SDS011;24692;45.642;13.806;2024-01-25T02:22:16;16.73;;;11.97;;
36443;SDS011;24692;45.642;13.806;2024-01-25T02:24:43;17.13;;;11.57;;
36443;SDS011;24692;45.642;13.806;2024-01-25T02:27:09;21.73;;;12.73;;
36443;SDS011;24692;45.642;13.806;2024-01-25T02:29:35;19.90;;;12.53;;
36443;SDS011;24692;45.642;13.806;2024-01-25T02:32:00;23.53;;;13.03;;
36443;SDS011;24692;45.642;13.806;2024-01-25T02:34:26;23.20;;;14.20;;
36443;SDS011;24692;45.642;13.806;2024-01-25T02:36:52;20.37;;;13.53;;
36443;SDS011;24692;45.642;13.806;2024-01-25T02:39:17;19.50;;;12.97;;
36443;SDS011;24692;45.642;13.806;2024-01-25T02:41:43;19.37;;;13.30;;
36443;SDS011;24692;45.642;13.806;2024-01-25T02:44:09;21.93;;;13.77;;
36443;SDS011;24692;45.642;13.806;2024-01-25T02:46:36;20.97;;;13.30;;
36443;SDS011;24692;45.642;13.806;2024-01-25T02:49:02;20.23;;;14.30;;
36443;SDS011;24692;45.642;13.806;2024-01-25T02:51:28;22.73;;;14.83;;
36443;SDS011;24692;45.642;13.806;2024-01-25T02:53:54;19.57;;;13.37;;
36443;SDS011;24692;45.642;13.806;2024-01-25T02:56:20;19.70;;;13.67;;
36443;SDS011;24692;45.642;13.806;2024-01-25T02:58:46;20.40;;;14.50;;
36443;SDS011;24692;45.642;13.806;2024-01-25T03:01:11;25.50;;;16.47;;
36443;SDS011;24692;45.642;13.806;2024-01-25T03:03:37;18.87;;;13.27;;
36443;SDS011;24692;45.642;13.806;2024-01-25T03:06:05;21.37;;;14.03;;
36443;SDS011;24692;45.642;13.806;2024-01-25T03:08:31;20.80;;;14.53;;
36443;SDS011;24692;45.642;13.806;2024-01-25T03:10:57;19.23;;;13.60;;
36443;SDS011;24692;45.642;13.806;2024-01-25T03:13:23;26.20;;;17.43;;
36443;SDS011;24692;45.642;13.806;2024-01-25T03:15:48;19.83;;;12.87;;
36443;SDS011;24692;45.642;13.806;2024-01-25T03:18:14;19.50;;;13.27;;
36443;SDS011;24692;45.642;13.806;2024-01-25T03:20:40;18.00;;;12.60;;
36443;SDS011;24692;45.642;13.806;2024-01-25T03:23:05;29.10;;;19.57;;
36443;SDS011;24692;45.642;13.806;2024-01-25T03:25:31;33.47;;;22.77;;
36443;SDS011;24692;45.642;13.806;2024-01-25T03:27:57;33.87;;;22.80;;
36443;SDS011;24692;45.642;13.806;2024-01-25T03:30:22;37.53;;;23.87;;
36443;SDS011;24692;45.642;13.806;2024-01-25T03:32:48;40.30;;;26.33;;
36443;SDS011;24692;45.642;13.806;2024-01-25T03:35:14;36.37;;;24.37;;
36443;SDS011;24692;45.642;13.806;2024-01-25T03:37:39;31.43;;;21.73;;
36443;SDS011;24692;45.642;13.806;2024-01-25T03:40:05;39.37;;;26.43;;
36443;SDS011;24692;45.642;13.806;2024-01-25T03:42:31;46.50;;;32.03;;
36443;SDS011;24692;45.642;13.806;2024-01-25T03:44:57;32.33;;;22.47;;
36443;SDS011;24692;45.642;13.806;2024-01-25T03:47:23;44.80;;;30.47;;
36443;SDS011;24692;45.642;13.806;2024-01-25T03:49:48;48.20;;;30.93;;
36443;SDS011;24692;45.642;13.806;2024-01-25T03:52:14;46.10;;;31.10;;
36443;SDS011;24692;45.642;13.806;2024-01-25T03:54:39;43.37;;;30.50;;
36443;SDS011;24692;45.642;13.806;2024-01-25T03:57:05;45.97;;;31.17;;
36443;SDS011;24692;45.642;13.806;2024-01-25T03:59:31;53.03;;;31.57;;
36443;SDS011;24692;45.642;13.806;2024-01-25T04:01:57;52.60;;;33.63;;
36443;SDS011;24692;45.642;13.806;2024-01-25T04:04:22;46.67;;;30.60;;
36443;SDS011;24692;45.642;13.806;2024-01-25T04:06:48;45.70;;;29.70;;
36443;SDS011;24692;45.642;13.806;2024-01-25T04:09:14;50.80;;;33.83;;
36443;SDS011;24692;45.642;13.806;2024-01-25T04:11:42;43.50;;;29.90;;
36443;SDS011;24692;45.642;13.806;2024-01-25T04:14:08;45.57;;;29.77;;
36443;SDS011;24692;45.642;13.806;2024-01-25T04:16:33;42.30;;;28.13;;
36443;SDS011;24692;45.642;13.806;2024-01-25T04:18:59;36.03;;;25.17;;
36443;SDS011;24692;45.642;13.806;2024-01-25T04:21:26;35.93;;;24.30;;
36443;SDS011;24692;45.642;13.806;2024-01-25T04:23:52;38.93;;;25.80;;
36443;SDS011;24692;45.642;13.806;2024-01-25T04:26:18;38.03;;;26.23;;
36443;SDS011;24692;45.642;13.806;2024-01-25T04:28:43;35.97;;;24.50;;
36443;SDS011;24692;45.642;13.806;2024-01-25T04:31:09;38.63;;;25.80;;
36443;SDS011;24692;45.642;13.806;2024-01-25T04:33:35;40.53;;;26.00;;
36443;SDS011;24692;45.642;13.806;2024-01-25T04:36:03;45.07;;;29.50;;
36443;SDS011;24692;45.642;13.806;2024-01-25T04:38:29;35.30;;;23.83;;
36443;SDS011;24692;45.642;13.806;2024-01-25T04:40:54;37.33;;;22.57;;
36443;SDS011;24692;45.642;13.806;2024-01-25T04:43:20;34.13;;;22.23;;
36443;SDS011;24692;45.642;13.806;2024-01-25T04:45:46;30.27;;;22.17;;
36443;SDS011;24692;45.642;13.806;2024-01-25T04:48:11;35.20;;;21.97;;
36443;SDS011;24692;45.642;13.806;2024-01-25T04:50:37;30.57;;;21.70;;
36443;SDS011;24692;45.642;13.806;2024-01-25T04:53:04;37.57;;;24.70;;
36443;SDS011;24692;45.642;13.806;2024-01-25T04:55:30;33.67;;;22.47;;
36443;SDS011;24692;45.642;13.806;2024-01-25T04:57:55;36.10;;;23.17;;
36443;SDS011;24692;45.642;13.806;2024-01-25T05:00:21;39.50;;;25.83;;
36443;SDS011;24692;45.642;13.806;2024-01-25T05:02:47;37.43;;;26.37;;
36443;SDS011;24692;45.642;13.806;2024-01-25T05:05:13;40.97;;;25.53;;
36443;SDS011;24692;45.642;13.806;2024-01-25T05:07:40;36.63;;;24.70;;
36443;SDS011;24692;45.642;13.806;2024-01-25T05:10:06;36.87;;;25.37;;
36443;SDS011;24692;45.642;13.806;2024-01-25T05:12:32;39.60;;;26.03;;
36443;SDS011;24692;45.642;13.806;2024-01-25T05:14:58;39.97;;;26.30;;
36443;SDS011;24692;45.642;13.806;2024-01-25T05:17:24;42.17;;;26.03;;
36443;SDS011;24692;45.642;13.806;2024-01-25T05:19:50;38.90;;;25.57;;
36443;SDS011;24692;45.642;13.806;2024-01-25T05:22:16;47.93;;;31.63;;
36443;SDS011;24692;45.642;13.806;2024-01-25T05:24:42;41.43;;;29.43;;
36443;SDS011;24692;45.642;13.806;2024-01-25T05:27:07;38.00;;;26.03;;
36443;SDS011;24692;45.642;13.806;2024-01-25T05:29:33;39.43;;;27.73;;
36443;SDS011;24692;45.642;13.806;2024-01-25T05:31:59;47.77;;;30.43;;
36443;SDS011;24692;45.642;13.806;2024-01-25T05:34:24;43.63;;;29.63;;
36443;SDS011;24692;45.642;13.806;2024-01-25T05:36:50;45.07;;;30.20;;
36443;SDS011;24692;45.642;13.806;2024-01-25T05:39:16;45.40;;;30.10;;
36443;SDS011;24692;45.642;13.806;2024-01-25T05:41:42;48.33;;;32.77;;
36443;SDS011;24692;45.642;13.806;2024-01-25T05:44:10;51.87;;;33.90;;
36443;SDS011;24692;45.642;13.806;2024-01-25T05:46:36;54.17;;;34.83;;
36443;SDS011;24692;45.642;13.806;2024-01-25T05:49:02;51.90;;;33.67;;
36443;SDS011;24692;45.642;13.806;2024-01-25T05:51:28;57.50;;;35.17;;
36443;SDS011;24692;45.642;13.806;2024-01-25T05:53:53;55.90;;;38.40;;
36443;SDS011;24692;45.642;13.806;2024-01-25T05:56:19;66.07;;;42.57;;
36443;SDS011;24692;45.642;13.806;2024-01-25T05:58:45;63.20;;;42.07;;
36443;SDS011;24692;45.642;13.806;2024-01-25T06:01:10;67.40;;;42.83;;
36443;SDS011;24692;45.642;13.806;2024-01-25T06:03:36;69.30;;;44.87;;
36443;SDS011;24692;45.642;13.806;2024-01-25T06:06:02;72.63;;;44.30;;
36443;SDS011;24692;45.642;13.806;2024-01-25T06:08:27;67.97;;;44.50;;
36443;SDS011;24692;45.642;13.806;2024-01-25T06:10:53;65.43;;;41.73;;
36443;SDS011;24692;45.642;13.806;2024-01-25T06:13:19;76.90;;;48.97;;
36443;SDS011;24692;45.642;13.806;2024-01-25T06:15:44;73.77;;;47.57;;
36443;SDS011;24692;45.642;13.806;2024-01-25T06:18:10;73.43;;;45.37;;
36443;SDS011;24692;45.642;13.806;2024-01-25T06:20:36;81.63;;;50.13;;
36443;SDS011;24692;45.642;13.806;2024-01-25T06:23:01;81.10;;;49.03;;
36443;SDS011;24692;45.642;13.806;2024-01-25T06:25:27;84.90;;;52.53;;
36443;SDS011;24692;45.642;13.806;2024-01-25T06:27:56;95.47;;;57.77;;
36443;SDS011;24692;45.642;13.806;2024-01-25T06:30:22;90.33;;;55.87;;
36443;SDS011;24692;45.642;13.806;2024-01-25T06:32:48;90.77;;;53.93;;
36443;SDS011;24692;45.642;13.806;2024-01-25T06:35:14;82.13;;;52.60;;
36443;SDS011;24692;45.642;13.806;2024-01-25T06:37:40;83.03;;;51.90;;
36443;SDS011;24692;45.642;13.806;2024-01-25T06:40:06;77.63;;;49.60;;
36443;SDS011;24692;45.642;13.806;2024-01-25T06:42:32;83.20;;;50.70;;
36443;SDS011;24692;45.642;13.806;2024-01-25T06:44:58;90.10;;;55.13;;
36443;SDS011;24692;45.642;13.806;2024-01-25T06:47:24;89.10;;;54.63;;
36443;SDS011;24692;45.642;13.806;2024-01-25T06:49:49;79.07;;;49.73;;
36443;SDS011;24692;45.642;13.806;2024-01-25T06:52:17;78.73;;;50.60;;
36443;SDS011;24692;45.642;13.806;2024-01-25T06:54:43;73.07;;;48.03;;
36443;SDS011;24692;45.642;13.806;2024-01-25T06:57:09;73.03;;;48.67;;
36443;SDS011;24692;45.642;13.806;2024-01-25T06:59:35;73.03;;;47.10;;
36443;SDS011;24692;45.642;13.806;2024-01-25T07:02:01;75.63;;;48.93;;
36443;SDS011;24692;45.642;13.806;2024-01-25T07:04:30;69.57;;;47.03;;
36443;SDS011;24692;45.642;13.806;2024-01-25T07:06:55;64.27;;;44.43;;
36443;SDS011;24692;45.642;13.806;2024-01-25T07:09:21;67.27;;;44.37;;
36443;SDS011;24692;45.642;13.806;2024-01-25T07:11:47;66.90;;;43.27;;
36443;SDS011;24692;45.642;13.806;2024-01-25T07:14:12;65.90;;;43.10;;
36443;SDS011;24692;45.642;13.806;2024-01-25T07:16:38;62.47;;;37.63;;
36443;SDS011;24692;45.642;13.806;2024-01-25T07:19:03;61.27;;;38.77;;
36443;SDS011;24692;45.642;13.806;2024-01-25T07:21:29;57.50;;;36.13;;
36443;SDS011;24692;45.642;13.806;2024-01-25T07:24:02;53.20;;;34.73;;
36443;SDS011;24692;45.642;13.806;2024-01-25T07:26:29;47.83;;;30.50;;
36443;SDS011;24692;45.642;13.806;2024-01-25T07:28:55;51.70;;;31.53;;
36443;SDS011;24692;45.642;13.806;2024-01-25T07:31:27;44.80;;;30.50;;
36443;SDS011;24692;45.642;13.806;2024-01-25T07:33:53;46.93;;;29.50;;
36443;SDS011;24692;45.642;13.806;2024-01-25T07:36:20;42.83;;;28.27;;
36443;SDS011;24692;45.642;13.806;2024-01-25T07:38:45;46.73;;;30.53;;
36443;SDS011;24692;45.642;13.806;2024-01-25T07:41:12;44.03;;;29.60;;
36443;SDS011;24692;45.642;13.806;2024-01-25T07:43:38;47.00;;;30.50;;
36443;SDS011;24692;45.642;13.806;2024-01-25T07:46:04;45.90;;;28.03;;
36443;SDS011;24692;45.642;13.806;2024-01-25T07:48:29;47.20;;;28.33;;
36443;SDS011;24692;45.642;13.806;2024-01-25T07:50:56;42.37;;;26.97;;
36443;SDS011;24692;45.642;13.806;2024-01-25T07:53:21;58.20;;;38.97;;
36443;SDS011;24692;45.642;13.806;2024-01-25T07:55:47;49.53;;;34.13;;
36443;SDS011;24692;45.642;13.806;2024-01-25T07:58:14;54.67;;;36.87;;
36443;SDS011;24692;45.642;13.806;2024-01-25T08:00:40;54.03;;;36.63;;
36443;SDS011;24692;45.642;13.806;2024-01-25T08:03:05;54.90;;;36.53;;
36443;SDS011;24692;45.642;13.806;2024-01-25T08:05:31;57.00;;;37.27;;
36443;SDS011;24692;45.642;13.806;2024-01-25T08:07:57;55.70;;;36.90;;
36443;SDS011;24692;45.642;13.806;2024-01-25T08:10:22;54.93;;;36.17;;
36443;SDS011;24692;45.642;13.806;2024-01-25T08:12:48;51.60;;;36.03;;
36443;SDS011;24692;45.642;13.806;2024-01-25T08:15:13;54.77;;;37.67;;
36443;SDS011;24692;45.642;13.806;2024-01-25T08:17:39;56.30;;;37.10;;
36443;SDS011;24692;45.642;13.806;2024-01-25T08:20:05;55.67;;;37.77;;
36443;SDS011;24692;45.642;13.806;2024-01-25T08:22:31;58.57;;;38.83;;
36443;SDS011;24692;45.642;13.806;2024-01-25T08:24:58;54.87;;;37.07;;
36443;SDS011;24692;45.642;13.806;2024-01-25T08:27:24;52.17;;;36.93;;
36443;SDS011;24692;45.642;13.806;2024-01-25T08:29:50;55.47;;;38.00;;
36443;SDS011;24692;45.642;13.806;2024-01-25T08:32:15;53.97;;;37.40;;
36443;SDS011;24692;45.642;13.806;2024-01-25T08:34:41;54.67;;;37.80;;
36443;SDS011;24692;45.642;13.806;2024-01-25T08:37:07;59.30;;;38.70;;
36443;SDS011;24692;45.642;13.806;2024-01-25T08:39:32;54.50;;;39.07;;
36443;SDS011;24692;45.642;13.806;2024-01-25T08:41:58;57.70;;;39.20;;
36443;SDS011;24692;45.642;13.806;2024-01-25T08:44:27;52.07;;;36.47;;
36443;SDS011;24692;45.642;13.806;2024-01-25T08:46:53;51.50;;;36.00;;
36443;SDS011;24692;45.642;13.806;2024-01-25T08:49:18;55.87;;;37.80;;
36443;SDS011;24692;45.642;13.806;2024-01-25T08:51:44;58.83;;;38.80;;
36443;SDS011;24692;45.642;13.806;2024-01-25T08:54:10;59.53;;;38.57;;
36443;SDS011;24692;45.642;13.806;2024-01-25T08:56:35;53.60;;;36.97;;
36443;SDS011;24692;45.642;13.806;2024-01-25T08:59:01;50.67;;;36.03;;
36443;SDS011;24692;45.642;13.806;2024-01-25T09:01:27;56.47;;;37.40;;
36443;SDS011;24692;45.642;13.806;2024-01-25T09:03:53;51.10;;;36.70;;
36443;SDS011;24692;45.642;13.806;2024-01-25T09:06:18;51.87;;;37.00;;
36443;SDS011;24692;45.642;13.806;2024-01-25T09:08:44;59.00;;;38.10;;
36443;SDS011;24692;45.642;13.806;2024-01-25T09:11:10;53.83;;;38.50;;
36443;SDS011;24692;45.642;13.806;2024-01-25T09:13:35;56.00;;;38.20;;
36443;SDS011;24692;45.642;13.806;2024-01-25T09:16:01;57.87;;;38.33;;
36443;SDS011;24692;45.642;13.806;2024-01-25T09:18:27;58.53;;;39.70;;
36443;SDS011;24692;45.642;13.806;2024-01-25T09:20:52;60.17;;;39.90;;
36443;SDS011;24692;45.642;13.806;2024-01-25T09:23:18;57.37;;;38.80;;
36443;SDS011;24692;45.642;13.806;2024-01-25T09:25:45;53.37;;;38.87;;
36443;SDS011;24692;45.642;13.806;2024-01-25T09:28:11;56.53;;;38.03;;
36443;SDS011;24692;45.642;13.806;2024-01-25T09:30:37;57.90;;;39.27;;
36443;SDS011;24692;45.642;13.806;2024-01-25T09:33:04;63.60;;;45.87;;
36443;SDS011;24692;45.642;13.806;2024-01-25T09:35:31;59.47;;;42.40;;
36443;SDS011;24692;45.642;13.806;2024-01-25T09:37:57;61.17;;;42.67;;
36443;SDS011;24692;45.642;13.806;2024-01-25T09:40:22;62.97;;;43.27;;
36443;SDS011;24692;45.642;13.806;2024-01-25T09:42:48;57.40;;;41.63;;
36443;SDS011;24692;45.642;13.806;2024-01-25T09:45:17;59.33;;;42.53;;
36443;SDS011;24692;45.642;13.806;2024-01-25T09:47:46;61.60;;;42.93;;
36443;SDS011;24692;45.642;13.806;2024-01-25T09:50:13;63.20;;;44.37;;
36443;SDS011;24692;45.642;13.806;2024-01-25T09:52:39;66.43;;;45.17;;
36443;SDS011;24692;45.642;13.806;2024-01-25T09:55:07;60.07;;;41.93;;
36443;SDS011;24692;45.642;13.806;2024-01-25T09:57:38;58.77;;;42.67;;
36443;SDS011;24692;45.642;13.806;2024-01-25T10:00:10;55.53;;;39.50;;
36443;SDS011;24692;45.642;13.806;2024-01-25T10:02:37;62.20;;;41.00;;
36443;SDS011;24692;45.642;13.806;2024-01-25T10:05:03;55.43;;;40.93;;
36443;SDS011;24692;45.642;13.806;2024-01-25T10:07:39;56.27;;;40.30;;
36443;SDS011;24692;45.642;13.806;2024-01-25T10:10:06;51.47;;;37.47;;
36443;SDS011;24692;45.642;13.806;2024-01-25T10:12:32;59.40;;;41.03;;
36443;SDS011;24692;45.642;13.806;2024-01-25T10:14:58;52.80;;;40.27;;
36443;SDS011;24692;45.642;13.806;2024-01-25T10:17:24;56.07;;;41.03;;
36443;SDS011;24692;45.642;13.806;2024-01-25T10:19:50;59.87;;;44.20;;
36443;SDS011;24692;45.642;13.806;2024-01-25T10:22:16;60.47;;;43.90;;
36443;SDS011;24692;45.642;13.806;2024-01-25T10:24:42;59.23;;;44.17;;
36443;SDS011;24692;45.642;13.806;2024-01-25T10:27:08;64.27;;;45.37;;
36443;SDS011;24692;45.642;13.806;2024-01-25T10:29:36;61.37;;;44.13;;
36443;SDS011;24692;45.642;13.806;2024-01-25T10:32:02;61.23;;;44.23;;
36443;SDS011;24692;45.642;13.806;2024-01-25T10:34:30;57.23;;;42.17;;
36443;SDS011;24692;45.642;13.806;2024-01-25T10:36:57;53.30;;;41.80;;
36443;SDS011;24692;45.642;13.806;2024-01-25T10:39:23;51.63;;;40.20;;
36443;SDS011;24692;45.642;13.806;2024-01-25T10:41:49;52.87;;;41.03;;
36443;SDS011;24692;45.642;13.806;2024-01-25T10:44:18;55.47;;;39.23;;
36443;SDS011;24692;45.642;13.806;2024-01-25T10:46:48;52.53;;;40.07;;
36443;SDS011;24692;45.642;13.806;2024-01-25T10:49:14;54.83;;;40.23;;
36443;SDS011;24692;45.642;13.806;2024-01-25T10:51:43;54.67;;;40.67;;
36443;SDS011;24692;45.642;13.806;2024-01-25T10:54:13;50.03;;;38.20;;
36443;SDS011;24692;45.642;13.806;2024-01-25T10:56:43;47.83;;;38.50;;
36443;SDS011;24692;45.642;13.806;2024-01-25T10:59:11;50.08;;;37.03;;
36443;SDS011;24692;45.642;13.806;2024-01-25T11:01:37;45.60;;;37.33;;
36443;SDS011;24692;45.642;13.806;2024-01-25T11:04:11;43.53;;;34.10;;
36443;SDS011;24692;45.642;13.806;2024-01-25T11:06:38;44.95;;;33.75;;
36443;SDS011;24692;45.642;13.806;2024-01-25T11:09:04;42.25;;;35.10;;
36443;SDS011;24692;45.642;13.806;2024-01-25T11:11:36;40.53;;;33.70;;
36443;SDS011;24692;45.642;13.806;2024-01-25T11:14:04;44.15;;;35.50;;
36443;SDS011;24692;45.642;13.806;2024-01-25T11:16:38;41.65;;;32.80;;
36443;SDS011;24692;45.642;13.806;2024-01-25T11:19:07;39.15;;;30.08;;
36443;SDS011;24692;45.642;13.806;2024-01-25T11:21:42;38.22;;;32.25;;
36443;SDS011;24692;45.642;13.806;2024-01-25T11:24:13;40.50;;;31.17;;
36443;SDS011;24692;45.642;13.806;2024-01-25T11:26:46;38.45;;;30.95;;
36443;SDS011;24692;45.642;13.806;2024-01-25T11:29:15;37.78;;;31.90;;
36443;SDS011;24692;45.642;13.806;2024-01-25T11:31:45;39.00;;;31.85;;
36443;SDS011;24692;45.642;13.806;2024-01-25T11:34:11;34.38;;;29.15;;
36443;SDS011;24692;45.642;13.806;2024-01-25T11:36:39;37.15;;;27.92;;
36443;SDS011;24692;45.642;13.806;2024-01-25T11:39:05;35.67;;;27.05;;
36443;SDS011;24692;45.642;13.806;2024-01-25T11:41:32;34.20;;;27.35;;
36443;SDS011;24692;45.642;13.806;2024-01-25T11:43:58;29.50;;;24.73;;
36443;SDS011;24692;45.642;13.806;2024-01-25T11:46:23;28.17;;;23.90;;
36443;SDS011;24692;45.642;13.806;2024-01-25T11:48:50;30.70;;;23.73;;
36443;SDS011;24692;45.642;13.806;2024-01-25T11:51:16;28.38;;;22.95;;
36443;SDS011;24692;45.642;13.806;2024-01-25T11:53:42;31.35;;;24.83;;
36443;SDS011;24692;45.642;13.806;2024-01-25T11:56:13;40.53;;;28.55;;
36443;SDS011;24692;45.642;13.806;2024-01-25T11:58:45;39.45;;;27.73;;
36443;SDS011;24692;45.642;13.806;2024-01-25T12:01:12;35.42;;;29.85;;
36443;SDS011;24692;45.642;13.806;2024-01-25T12:03:38;35.67;;;27.58;;
36443;SDS011;24692;45.642;13.806;2024-01-25T12:06:05;35.60;;;26.85;;
36443;SDS011;24692;45.642;13.806;2024-01-25T12:08:34;25.10;;;20.55;;
36443;SDS011;24692;45.642;13.806;2024-01-25T12:11:07;31.42;;;19.90;;
36443;SDS011;24692;45.642;13.806;2024-01-25T12:13:42;21.45;;;14.20;;
36443;SDS011;24692;45.642;13.806;2024-01-25T12:16:09;13.18;;;9.35;;
36443;SDS011;24692;45.642;13.806;2024-01-25T12:18:37;17.73;;;13.90;;
36443;SDS011;24692;45.642;13.806;2024-01-25T12:21:07;14.73;;;11.10;;
36443;SDS011;24692;45.642;13.806;2024-01-25T12:23:37;21.15;;;15.27;;
36443;SDS011;24692;45.642;13.806;2024-01-25T12:26:04;23.85;;;15.48;;
36443;SDS011;24692;45.642;13.806;2024-01-25T12:28:34;21.42;;;15.57;;
36443;SDS011;24692;45.642;13.806;2024-01-25T12:31:00;25.75;;;20.75;;
36443;SDS011;24692;45.642;13.806;2024-01-25T12:33:28;22.40;;;17.73;;
36443;SDS011;24692;45.642;13.806;2024-01-25T12:35:54;17.08;;;14.48;;
36443;SDS011;24692;45.642;13.806;2024-01-25T12:38:22;9.88;;;7.40;;
36443;SDS011;24692;45.642;13.806;2024-01-25T12:40:49;8.35;;;6.85;;
36443;SDS011;24692;45.642;13.806;2024-01-25T12:43:16;10.65;;;8.88;;
36443;SDS011;24692;45.642;13.806;2024-01-25T12:45:42;11.98;;;10.07;;
36443;SDS011;24692;45.642;13.806;2024-01-25T12:48:08;9.68;;;7.65;;
36443;SDS011;24692;45.642;13.806;2024-01-25T12:50:36;9.60;;;8.13;;
36443;SDS011;24692;45.642;13.806;2024-01-25T12:53:02;9.77;;;7.50;;
36443;SDS011;24692;45.642;13.806;2024-01-25T12:55:29;7.55;;;6.57;;
36443;SDS011;24692;45.642;13.806;2024-01-25T12:57:55;11.02;;;6.97;;
36443;SDS011;24692;45.642;13.806;2024-01-25T13:00:21;10.13;;;7.67;;
36443;SDS011;24692;45.642;13.806;2024-01-25T13:02:47;6.25;;;5.35;;
36443;SDS011;24692;45.642;13.806;2024-01-25T13:05:14;7.65;;;6.10;;
36443;SDS011;24692;45.642;13.806;2024-01-25T13:07:39;10.07;;;7.13;;
36443;SDS011;24692;45.642;13.806;2024-01-25T13:10:06;7.75;;;6.03;;
36443;SDS011;24692;45.642;13.806;2024-01-25T13:12:33;11.20;;;6.13;;
36443;SDS011;24692;45.642;13.806;2024-01-25T13:14:59;10.77;;;6.00;;
36443;SDS011;24692;45.642;13.806;2024-01-25T13:17:24;9.05;;;6.47;;
36443;SDS011;24692;45.642;13.806;2024-01-25T13:19:52;13.40;;;6.68;;
36443;SDS011;24692;45.642;13.806;2024-01-25T13:22:18;8.95;;;6.90;;
36443;SDS011;24692;45.642;13.806;2024-01-25T13:24:46;9.65;;;7.32;;
36443;SDS011;24692;45.642;13.806;2024-01-25T13:27:12;10.32;;;6.82;;
36443;SDS011;24692;45.642;13.806;2024-01-25T13:29:37;12.63;;;7.18;;
36443;SDS011;24692;45.642;13.806;2024-01-25T13:32:03;9.80;;;7.45;;
36443;SDS011;24692;45.642;13.806;2024-01-25T13:34:29;11.75;;;7.30;;
36443;SDS011;24692;45.642;13.806;2024-01-25T13:36:55;10.20;;;6.97;;
36443;SDS011;24692;45.642;13.806;2024-01-25T13:39:20;7.60;;;5.60;;
36443;SDS011;24692;45.642;13.806;2024-01-25T13:41:46;6.70;;;5.47;;
36443;SDS011;24692;45.642;13.806;2024-01-25T13:44:13;8.75;;;5.93;;
36443;SDS011;24692;45.642;13.806;2024-01-25T13:46:39;6.82;;;4.60;;
36443;SDS011;24692;45.642;13.806;2024-01-25T13:49:05;6.82;;;4.22;;
36443;SDS011;24692;45.642;13.806;2024-01-25T13:51:31;5.60;;;5.07;;
36443;SDS011;24692;45.642;13.806;2024-01-25T13:53:57;8.35;;;6.07;;
36443;SDS011;24692;45.642;13.806;2024-01-25T13:56:22;8.10;;;5.60;;
36443;SDS011;24692;45.642;13.806;2024-01-25T13:58:48;9.00;;;6.05;;
36443;SDS011;24692;45.642;13.806;2024-01-25T14:01:14;8.95;;;6.68;;
36443;SDS011;24692;45.642;13.806;2024-01-25T14:03:39;8.10;;;6.45;;
36443;SDS011;24692;45.642;13.806;2024-01-25T14:06:05;10.65;;;6.57;;